KLYH/LYH METAR and TAF weather

Enter ICAO airport designator
Station Type Date Time Source
KLYH METAR 2022/12/08 11:54 UTC NOAA

KLYH 081154Z 00000KT 3SM BCFG OVC004 11/09 A3025 RMK AO2 SLP243 70009 T01060094 10122 20078 53017


Station Type Date Time Source
KLYH Decoded METAR 2022/12/08 11:54 UTC NOAA

LYNCHBURG REGIONAL AIRPORT, VA, United States (KLYH) 37-19N 079-12W 295M
Dec 08, 2022 - 06:54 AM EST / 2022.12.08 1154 UTC
Wind: Calm:0
Visibility: 3 mile(s):0
Sky conditions: overcast
Weather: patches of fog
Temperature: 51.1 F (10.6 C)
Dew Point: 48.9 F (9.4 C)
Relative Humidity: 92%
Pressure (altimeter): 30.25 in. Hg (1024 hPa)
Pressure tendency: 0.05 inches (1.7 hPa) higher than three hours ago
ob: KLYH 081154Z 00000KT 3SM BCFG OVC004 11/09 A3025 RMK AO2 SLP243 70009 T01060094 10122 20078 53017
cycle: 12

Station Type Date Time Source
KLYH TAF 2022/12/08 12:52 UTC NOAA

TAF KLYH 081150Z 0812/0912 06003KT 3SM BR OVC004
TEMPO 0812/0813 1/2SM FG VV002
FM081400 04005KT 6SM BR OVC008
FM081800 05004KT P6SM OVC015
FM090300 04006KT 4SM -RA BR OVC007

Example: see airport list